Campton, New Hampshire
Current Conditions -  °F | °C
As of 8:15 PM on Monday 24 Nov 2014 (Local Time) from K1P1 Reporting Station
Clear Clear  
Wind Chill: 61°   Ceiling: Unl
Heat Index: 61°   Visibility: 10mi
Dew Point: 58°   Wind: 6mph
Humidity: 87%   Direction: 190°S
Pressure: 29.53"   Gusts: 16mph
Location:  43.86°N, 71.65°W
Report Text: K1P1 250115Z AUTO 19005G14KT 10SM CLR 16/14 A2953 RMK AO2 T01630142
Loading
Personal Weather Stations






























Interactive Weather Map New forecast layout! Learn more

10-Day Weather Forecast

Advertisements
Track Severe Weather on mobile